createdAt,value
2018-04-11T00:01:29.479Z,9.27
2018-04-11T00:03:59.188Z,8.07
2018-04-11T00:06:28.745Z,10.30
2018-04-11T00:08:57.978Z,11.50
2018-04-11T00:11:27.612Z,11.93
2018-04-11T00:13:57.283Z,14.87
2018-04-11T00:16:26.889Z,14.37
2018-04-11T00:18:56.413Z,14.67
2018-04-11T00:21:25.940Z,14.80
2018-04-11T00:23:55.502Z,13.50
2018-04-11T00:26:25.061Z,16.10
2018-04-11T00:28:54.613Z,16.00
2018-04-11T00:31:24.170Z,15.70
2018-04-11T00:33:53.774Z,16.20
2018-04-11T00:36:23.339Z,18.73
2018-04-11T00:38:52.933Z,16.30
2018-04-11T00:41:22.607Z,18.47
2018-04-11T00:43:52.193Z,16.80
2018-04-11T00:46:21.821Z,16.27
2018-04-11T00:48:51.568Z,14.27
2018-04-11T00:51:21.130Z,16.80
2018-04-11T00:53:50.693Z,18.20
2018-04-11T00:56:20.224Z,17.40
2018-04-11T00:58:49.796Z,17.60
2018-04-11T01:01:19.347Z,18.67
2018-04-11T01:03:48.981Z,19.80
2018-04-11T01:06:18.534Z,20.27
2018-04-11T01:08:47.929Z,20.60
2018-04-11T01:11:17.524Z,17.87
2018-04-11T01:13:46.938Z,17.97
2018-04-11T01:16:16.504Z,15.73
2018-04-11T01:18:46.100Z,16.97
2018-04-11T01:21:15.725Z,21.37
2018-04-11T01:23:45.109Z,11.77
2018-04-11T01:26:14.722Z,19.67
2018-04-11T01:28:44.312Z,20.13
2018-04-11T01:31:13.966Z,20.57
2018-04-11T01:33:43.553Z,22.10
2018-04-11T01:36:13.156Z,20.67
2018-04-11T01:38:42.820Z,18.67
2018-04-11T01:41:12.429Z,16.90
2018-04-11T01:43:42.071Z,15.40
2018-04-11T01:46:11.665Z,15.70
2018-04-11T01:48:41.213Z,14.13
2018-04-11T01:51:10.496Z,14.33
2018-04-11T01:53:40.109Z,12.63
2018-04-11T01:56:10.181Z,13.50
2018-04-11T01:58:39.708Z,12.23
2018-04-11T02:01:09.226Z,12.87
2018-04-11T02:03:38.813Z,11.97
2018-04-11T02:06:08.409Z,10.47
2018-04-11T02:08:37.994Z,11.20
2018-04-11T02:11:07.833Z,10.43
2018-04-11T02:13:37.423Z,12.27
2018-04-11T02:16:06.733Z,11.57
2018-04-11T02:18:36.148Z,11.80
2018-04-11T02:21:05.695Z,11.13
2018-04-11T02:23:35.193Z,12.57
2018-04-11T02:26:04.073Z,12.80
2018-04-11T02:28:33.685Z,13.27
2018-04-11T02:31:03.227Z,12.87
2018-04-11T02:33:33.192Z,12.63
2018-04-11T02:36:02.799Z,14.47
2018-04-11T02:38:32.377Z,12.60
2018-04-11T02:41:02.031Z,13.40
2018-04-11T02:43:31.719Z,12.70
2018-04-11T02:46:01.302Z,15.87
2018-04-11T02:48:30.889Z,15.60
2018-04-11T02:51:00.875Z,14.63
2018-04-11T02:53:30.469Z,12.57
2018-04-11T02:56:00.084Z,13.97
2018-04-11T02:58:29.623Z,15.60
2018-04-11T03:00:59.593Z,17.00
2018-04-11T03:03:29.120Z,15.97
2018-04-11T03:05:58.727Z,17.77
2018-04-11T03:08:28.324Z,17.27
2018-04-11T03:10:57.903Z,18.87
2018-04-11T03:13:27.504Z,17.90
2018-04-11T03:15:57.561Z,18.93
2018-04-11T03:18:27.133Z,19.37
2018-04-11T03:20:56.742Z,20.37
2018-04-11T03:23:26.322Z,18.77
2018-04-11T03:25:56.272Z,16.93
2018-04-11T03:28:25.829Z,17.77
2018-04-11T03:30:55.412Z,18.30
2018-04-11T03:33:25.010Z,18.83
2018-04-11T03:35:54.615Z,19.57
2018-04-11T03:38:24.249Z,21.93
2018-04-11T03:40:53.808Z,20.60
2018-04-11T03:43:23.464Z,24.50
2018-04-11T03:45:53.192Z,25.70
2018-04-11T03:48:22.502Z,27.90
2018-04-11T03:50:52.070Z,24.77
2018-04-11T03:53:21.666Z,25.00
2018-04-11T03:55:51.258Z,26.77
2018-04-11T03:58:20.876Z,27.40
2018-04-11T04:00:50.415Z,28.50
2018-04-11T04:03:19.997Z,29.60
2018-04-11T04:05:49.297Z,33.67
2018-04-11T04:08:18.910Z,31.93
2018-04-11T04:10:48.530Z,30.97
2018-04-11T04:13:17.400Z,30.20
2018-04-11T04:15:57.872Z,29.40
2018-04-11T04:18:38.234Z,28.47
2018-04-11T04:21:07.513Z,27.60
2018-04-11T04:23:37.083Z,27.13
2018-04-11T04:26:06.794Z,28.90
2018-04-11T04:28:36.802Z,29.97
2018-04-11T04:31:06.376Z,30.30
2018-04-11T04:33:35.929Z,26.90
2018-04-11T04:36:05.171Z,27.03
2018-04-11T04:38:34.797Z,26.50
2018-04-11T04:41:04.540Z,27.37
2018-04-11T04:43:35.708Z,27.90
2018-04-11T04:46:05.416Z,26.47
2018-04-11T04:48:34.975Z,27.70
2018-04-11T04:51:04.292Z,29.00
2018-04-11T04:53:33.847Z,32.10
2018-04-11T04:56:03.420Z,32.60
2018-04-11T04:58:32.952Z,33.40
2018-04-11T05:01:01.938Z,35.47
2018-04-11T05:03:31.452Z,36.27
2018-04-11T05:06:00.973Z,35.23
2018-04-11T05:08:30.522Z,31.07
2018-04-11T05:11:00.097Z,21.40
2018-04-11T05:13:29.668Z,31.57
2018-04-11T05:15:58.700Z,34.03
2018-04-11T05:18:28.292Z,35.60
2018-04-11T05:20:57.545Z,33.23
2018-04-11T05:23:27.066Z,33.47
2018-04-11T05:25:56.939Z,28.87
2018-04-11T05:28:26.169Z,36.17
2018-04-11T05:31:07.795Z,36.80
2018-04-11T05:37:09.699Z,44.47
2018-04-11T05:39:39.170Z,24.40
2018-04-11T05:42:08.624Z,31.53
2018-04-11T05:44:38.084Z,34.07
2018-04-11T05:47:07.334Z,35.30
2018-04-11T05:49:36.991Z,34.97
2018-04-11T05:52:06.931Z,38.00
2018-04-11T05:54:36.475Z,37.00
2018-04-11T05:57:06.014Z,41.30
2018-04-11T05:59:36.000Z,38.67
2018-04-11T06:02:05.648Z,42.20
2018-04-11T06:04:35.325Z,44.67
2018-04-11T06:07:04.877Z,40.90
2018-04-11T06:09:34.495Z,41.97
2018-04-11T06:12:04.034Z,41.90
2018-04-11T06:14:33.556Z,38.90
2018-04-11T06:17:03.143Z,40.40
2018-04-11T06:19:32.869Z,39.07
2018-04-11T06:22:02.396Z,34.30
2018-04-11T06:24:32.333Z,38.33
2018-04-11T06:27:01.874Z,34.83
2018-04-11T06:29:31.392Z,36.73
2018-04-11T06:32:00.959Z,38.60
2018-04-11T06:34:30.553Z,38.27
2018-04-11T06:37:00.505Z,36.77
2018-04-11T06:39:30.093Z,39.37
2018-04-11T06:41:59.658Z,39.07
2018-04-11T06:44:29.260Z,37.90
2018-04-11T06:46:58.821Z,38.10
2018-04-11T06:49:28.343Z,38.97
2018-04-11T06:51:57.946Z,40.30
2018-04-11T06:54:27.163Z,34.20
2018-04-11T06:56:56.696Z,38.40
2018-04-11T06:59:26.646Z,37.87
2018-04-11T07:01:56.206Z,41.57
2018-04-11T07:04:25.732Z,37.23
2018-04-11T07:06:55.720Z,39.07
2018-04-11T07:09:25.284Z,35.30
2018-04-11T07:11:54.888Z,38.53
2018-04-11T07:14:24.422Z,36.40
2018-04-11T07:16:53.959Z,34.10
2018-04-11T07:19:23.768Z,34.40
2018-04-11T07:21:53.268Z,37.67
2018-04-11T07:24:22.847Z,36.50
2018-04-11T07:26:52.482Z,26.03
2018-04-11T07:29:21.655Z,19.00
2018-04-11T07:31:51.552Z,33.20
2018-04-11T07:34:21.080Z,32.93
2018-04-11T07:36:50.640Z,32.77
2018-04-11T07:39:21.237Z,35.00
2018-04-11T07:41:51.601Z,35.30
2018-04-11T07:44:21.547Z,36.50
2018-04-11T07:46:51.927Z,38.90
2018-04-11T07:49:21.878Z,41.80
2018-04-11T07:51:51.624Z,39.10
2018-04-11T07:56:55.282Z,39.53
2018-04-11T07:59:25.280Z,37.60
2018-04-11T08:01:56.714Z,32.43
2018-04-11T08:04:26.029Z,26.40
2018-04-11T08:06:55.634Z,26.13
2018-04-11T08:09:25.226Z,28.40
2018-04-11T08:11:54.766Z,31.37
2018-04-11T08:14:24.106Z,29.83
2018-04-11T08:16:53.685Z,33.43
2018-04-11T08:19:23.384Z,31.37
2018-04-11T08:21:52.837Z,26.17
2018-04-11T08:24:22.482Z,24.33
2018-04-11T08:26:52.186Z,25.10
2018-04-11T08:29:21.459Z,24.90
2018-04-11T08:31:50.863Z,24.33
2018-04-11T08:34:20.434Z,26.87
2018-04-11T08:36:50.418Z,28.40
2018-04-11T08:39:20.009Z,28.07
2018-04-11T08:41:49.578Z,27.23
2018-04-11T08:44:19.170Z,22.10
2018-04-11T08:46:49.551Z,26.27
2018-04-11T08:49:19.249Z,23.70
2018-04-11T08:51:48.742Z,18.10
2018-04-11T08:54:18.250Z,21.87
2018-04-11T08:56:47.765Z,22.23
2018-04-11T08:59:17.398Z,19.97
2018-04-11T09:01:47.478Z,22.90
2018-04-11T09:04:17.917Z,21.63
2018-04-11T09:06:47.477Z,21.90
2018-04-11T09:09:17.481Z,17.00
2018-04-11T09:11:47.033Z,21.60
2018-04-11T09:14:16.584Z,16.40
2018-04-11T09:16:46.211Z,16.60
2018-04-11T09:19:15.840Z,17.37
2018-04-11T09:21:45.465Z,19.37
2018-04-11T09:24:14.959Z,21.20
2018-04-11T09:26:44.496Z,17.97
2018-04-11T09:29:14.055Z,14.20
2018-04-11T09:31:44.076Z,16.90
2018-04-11T09:34:13.636Z,15.50
2018-04-11T09:36:45.473Z,13.93
2018-04-11T09:39:16.715Z,15.40
2018-04-11T09:41:46.436Z,16.77
2018-04-11T09:44:15.921Z,17.33
2018-04-11T09:46:45.649Z,16.03
2018-04-11T09:49:15.265Z,18.73
2018-04-11T09:51:44.852Z,21.03
2018-04-11T09:54:14.369Z,21.30
2018-04-11T09:56:43.908Z,19.00
2018-04-11T09:59:13.624Z,19.50
2018-04-11T10:01:48.668Z,19.90
2018-04-11T10:04:18.808Z,18.40
2018-04-11T10:06:48.757Z,20.10
2018-04-11T10:09:18.472Z,23.57
2018-04-11T10:11:48.030Z,16.37
2018-04-11T10:14:17.592Z,23.20
2018-04-11T10:16:47.134Z,19.77
2018-04-11T10:19:16.729Z,17.07
2018-04-11T10:21:46.209Z,21.97
2018-04-11T10:24:15.531Z,22.23
2018-04-11T10:26:45.221Z,22.37
2018-04-11T10:29:14.771Z,23.00
2018-04-11T10:31:44.387Z,20.97
2018-04-11T10:34:14.171Z,21.23
2018-04-11T10:36:43.788Z,18.10
2018-04-11T10:39:13.375Z,22.30
2018-04-11T10:41:42.953Z,16.87
2018-04-11T10:44:12.561Z,22.70
2018-04-11T10:46:42.471Z,19.80
2018-04-11T10:49:11.837Z,22.00
2018-04-11T10:51:41.461Z,17.30
2018-04-11T10:54:11.132Z,18.37
2018-04-11T10:56:40.674Z,13.33
2018-04-11T10:59:10.323Z,20.10
2018-04-11T11:01:39.716Z,17.10
2018-04-11T11:04:09.414Z,20.90
2018-04-11T11:06:38.985Z,20.53
2018-04-11T11:09:08.641Z,22.30
2018-04-11T11:11:38.150Z,22.20
2018-04-11T11:14:07.710Z,19.30
2018-04-11T11:16:36.617Z,18.17
2018-04-11T11:19:06.301Z,20.10
2018-04-11T11:21:35.835Z,16.90
2018-04-11T11:24:05.141Z,18.83
2018-04-11T11:26:34.808Z,16.07
2018-04-11T11:29:04.649Z,19.27
2018-04-11T11:31:34.254Z,20.70
2018-04-11T11:34:03.593Z,17.20
2018-04-11T11:36:32.971Z,21.00
2018-04-11T11:39:02.736Z,24.53
2018-04-11T11:41:31.844Z,21.80
2018-04-11T11:44:01.444Z,19.93
2018-04-11T11:46:30.983Z,18.57
2018-04-11T11:49:00.621Z,23.17
2018-04-11T11:51:30.136Z,24.70
2018-04-11T11:53:59.806Z,16.33
2018-04-11T11:56:29.376Z,21.47
2018-04-11T11:58:58.971Z,21.67
2018-04-11T12:01:28.707Z,17.80
2018-04-11T12:03:58.322Z,21.57
2018-04-11T12:06:27.562Z,21.40
2018-04-11T12:08:57.543Z,21.90
2018-04-11T12:11:27.172Z,22.27
2018-04-11T12:13:56.674Z,21.93
2018-04-11T12:19:01.870Z,20.53
2018-04-11T12:21:31.392Z,22.43
2018-04-11T12:24:00.919Z,18.10
2018-04-11T12:26:30.857Z,15.67
2018-04-11T12:29:00.817Z,18.10
2018-04-11T12:31:30.424Z,19.70
2018-04-11T12:34:00.132Z,20.30
2018-04-11T12:36:30.096Z,19.87
2018-04-11T12:38:59.742Z,17.00
2018-04-11T12:41:29.924Z,19.13
2018-04-11T12:43:59.467Z,20.93
2018-04-11T12:46:28.989Z,20.17
2018-04-11T12:48:58.518Z,19.33
2018-04-11T12:51:27.928Z,19.50
2018-04-11T12:53:57.713Z,19.47
2018-04-11T12:56:27.207Z,21.13
2018-04-11T12:58:58.050Z,20.83
2018-04-11T13:01:28.863Z,17.90
2018-04-11T13:03:58.820Z,16.70
2018-04-11T13:06:28.397Z,17.80
2018-04-11T13:08:59.816Z,19.00
2018-04-11T13:11:30.818Z,16.40
2018-04-11T13:14:00.431Z,15.77
2018-04-11T13:16:30.898Z,19.80
2018-04-11T13:19:01.454Z,19.27
2018-04-11T13:21:30.808Z,17.47
2018-04-11T13:24:00.360Z,17.37
2018-04-11T13:26:29.923Z,17.53
2018-04-11T13:28:59.494Z,18.77
2018-04-11T13:31:29.890Z,17.83
2018-04-11T13:33:59.205Z,18.33
2018-04-11T13:36:29.235Z,16.23
2018-04-11T13:38:58.803Z,14.47
2018-04-11T13:41:28.436Z,15.90
2018-04-11T13:43:58.215Z,19.77
2018-04-11T13:46:27.556Z,29.70
2018-04-11T13:48:57.124Z,22.67
2018-04-11T13:51:26.719Z,18.20
2018-04-11T13:53:56.023Z,24.60
2018-04-11T13:56:25.732Z,19.03
2018-04-11T13:58:55.563Z,54.87
2018-04-11T14:01:25.061Z,20.10
2018-04-11T14:03:54.614Z,17.40
2018-04-11T14:06:24.622Z,16.23
2018-04-11T14:08:54.078Z,17.97
2018-04-11T14:11:30.006Z,22.83
2018-04-11T14:14:04.917Z,26.03
2018-04-11T14:16:34.243Z,33.60
2018-04-11T14:19:03.859Z,73.90
2018-04-11T14:21:33.478Z,38.80
2018-04-11T14:24:03.058Z,21.67
2018-04-11T14:26:32.672Z,21.03
2018-04-11T14:29:02.014Z,19.87
2018-04-11T14:31:31.724Z,23.07
2018-04-11T14:34:01.302Z,19.80
2018-04-11T14:36:36.783Z,19.03
2018-04-11T14:39:06.473Z,22.27
2018-04-11T14:41:36.876Z,18.17
2018-04-11T14:44:06.554Z,17.93
2018-04-11T14:46:36.093Z,17.33
2018-04-11T14:49:05.652Z,14.80
2018-04-11T14:51:35.200Z,20.33
2018-04-11T14:54:04.813Z,17.20
2018-04-11T14:56:34.420Z,20.47
2018-04-11T14:59:03.977Z,17.17
2018-04-11T15:01:33.591Z,17.87
2018-04-11T15:04:03.344Z,26.80
2018-04-11T15:06:32.872Z,30.10
2018-04-11T15:09:02.518Z,16.33
2018-04-11T15:11:32.080Z,15.83
2018-04-11T15:14:01.736Z,15.53
2018-04-11T15:16:31.806Z,19.90
2018-04-11T15:19:03.498Z,16.80
2018-04-11T15:21:33.010Z,14.20
2018-04-11T15:24:03.484Z,15.57
2018-04-11T15:26:34.411Z,14.43
2018-04-11T15:29:06.955Z,15.70
2018-04-11T15:31:38.724Z,15.47
2018-04-11T15:34:08.872Z,15.03
2018-04-11T15:36:38.441Z,15.20
2018-04-11T15:39:08.617Z,17.00
2018-04-11T15:41:41.782Z,14.97
2018-04-11T15:44:17.864Z,14.20
2018-04-11T15:46:48.237Z,14.33
2018-04-11T15:51:55.771Z,12.07
2018-04-11T15:54:25.781Z,12.93
2018-04-11T15:56:55.910Z,11.80
2018-04-11T15:59:26.976Z,12.47
2018-04-11T16:01:56.675Z,9.63
2018-04-11T16:04:27.000Z,8.67
2018-04-11T16:06:58.640Z,6.70
2018-04-11T16:09:29.658Z,6.83
2018-04-11T16:24:23.387Z,8.30
2018-04-11T16:26:52.664Z,8.23
2018-04-11T16:29:22.633Z,8.00
2018-04-11T16:31:52.327Z,6.80
2018-04-11T16:34:24.313Z,7.00
2018-04-11T16:36:54.113Z,6.67
2018-04-11T16:39:23.524Z,6.47
2018-04-11T16:41:54.049Z,5.87
2018-04-11T16:44:29.016Z,6.43
2018-04-11T16:46:58.518Z,5.70
2018-04-11T16:49:28.864Z,5.70
2018-04-11T16:51:58.526Z,5.90
2018-04-11T16:54:29.747Z,6.20
2018-04-11T16:56:59.512Z,6.57
2018-04-11T16:59:29.464Z,5.30
2018-04-11T17:01:59.102Z,6.93
2018-04-11T17:04:28.841Z,5.87
2018-04-11T17:06:58.463Z,5.90
2018-04-11T17:09:28.989Z,4.80
2018-04-11T17:12:02.260Z,4.93
2018-04-11T17:14:33.190Z,4.30
2018-04-11T17:20:33.526Z,4.83
2018-04-11T17:23:13.885Z,5.00
2018-04-11T17:29:04.342Z,5.43
2018-04-11T17:31:32.753Z,5.53
2018-04-11T17:34:02.454Z,7.33
2018-04-11T17:36:32.039Z,6.80
2018-04-11T17:39:02.425Z,9.67
2018-04-11T17:41:32.990Z,7.97
2018-04-11T17:44:02.278Z,7.53
2018-04-11T17:46:31.826Z,7.10
2018-04-11T17:49:02.775Z,5.87
2018-04-11T17:51:33.314Z,5.97
2018-04-11T17:54:02.854Z,5.80
2018-04-11T17:56:32.635Z,9.07
2018-04-11T17:59:02.136Z,7.40
2018-04-11T18:01:31.688Z,8.13
2018-04-11T18:04:01.327Z,7.90
2018-04-11T18:06:31.033Z,7.27
2018-04-11T18:09:01.050Z,7.43
2018-04-11T18:11:30.852Z,7.70
2018-04-11T18:14:01.483Z,7.27
2018-04-11T18:16:30.807Z,7.10
2018-04-11T18:19:01.177Z,6.93
2018-04-11T18:21:31.346Z,7.37
2018-04-11T18:24:01.314Z,8.73
2018-04-11T18:26:31.030Z,7.60
2018-04-11T18:29:00.596Z,9.13
2018-04-11T18:31:29.839Z,8.70
2018-04-11T18:33:59.434Z,8.07
2018-04-11T18:36:28.854Z,8.40
2018-04-11T18:38:58.400Z,8.77
2018-04-11T18:41:28.319Z,8.60
2018-04-11T18:43:57.926Z,8.93
2018-04-11T18:46:30.646Z,8.87
2018-04-11T18:49:01.108Z,9.47
2018-04-11T18:51:33.026Z,9.83
2018-04-11T18:54:03.331Z,10.87
2018-04-11T18:56:32.581Z,12.03
2018-04-11T18:59:02.092Z,10.50
2018-04-11T19:01:32.344Z,9.50
2018-04-11T19:04:04.162Z,8.83
2018-04-11T19:06:34.711Z,9.30
2018-04-11T19:09:14.729Z,9.73
2018-04-11T19:11:45.371Z,10.43
2018-04-11T19:16:54.210Z,10.47
2018-04-11T19:22:06.860Z,11.07
2018-04-11T19:24:39.351Z,10.03
2018-04-11T19:27:11.823Z,10.70
2018-04-11T19:35:46.709Z,12.67
2018-04-11T19:41:03.342Z,13.07
2018-04-11T19:43:33.713Z,11.50
2018-04-11T19:46:05.849Z,12.27
2018-04-11T19:48:35.195Z,12.20
2018-04-11T19:51:16.345Z,13.63
2018-04-11T19:53:45.661Z,14.50
2018-04-11T19:56:15.266Z,13.03
2018-04-11T19:58:44.752Z,14.83
2018-04-11T20:01:14.449Z,14.70
2018-04-11T20:03:43.769Z,14.03
2018-04-11T20:06:12.968Z,14.97
2018-04-11T20:08:42.165Z,13.57
2018-04-11T20:11:11.705Z,15.97
2018-04-11T20:13:40.861Z,14.07
2018-04-11T20:16:10.205Z,12.33
2018-04-11T20:18:39.513Z,11.67
2018-04-11T20:21:08.864Z,13.10
2018-04-11T20:23:38.189Z,13.87
2018-04-11T20:26:07.840Z,12.63
2018-04-11T20:28:37.117Z,13.03
2018-04-11T20:31:06.621Z,15.33
2018-04-11T20:33:36.284Z,14.53
2018-04-11T20:36:05.164Z,14.07
2018-04-11T20:38:34.421Z,13.40
2018-04-11T20:41:04.244Z,13.80
2018-04-11T20:43:33.880Z,14.43
2018-04-11T20:46:02.988Z,13.33
2018-04-11T20:48:32.510Z,12.50
2018-04-11T20:51:01.770Z,13.73
2018-04-11T20:53:31.986Z,13.73
2018-04-11T20:56:01.578Z,14.87
2018-04-11T20:58:31.155Z,14.97
2018-04-11T21:01:00.802Z,14.63
2018-04-11T21:03:30.167Z,13.93
2018-04-11T21:05:59.459Z,13.50
2018-04-11T21:08:29.099Z,15.13
2018-04-11T21:10:58.815Z,15.20
2018-04-11T21:13:28.522Z,15.50
2018-04-11T21:15:58.101Z,15.37
2018-04-11T21:18:27.637Z,16.00
2018-04-11T21:20:57.265Z,16.07
2018-04-11T21:23:26.616Z,15.13
2018-04-11T21:25:56.144Z,16.30
2018-04-11T21:28:25.708Z,15.67
2018-04-11T21:30:55.237Z,16.00
2018-04-11T21:33:24.572Z,16.07
2018-04-11T21:35:54.147Z,15.47
2018-04-11T21:38:23.664Z,15.97
2018-04-11T21:40:53.246Z,17.27
2018-04-11T21:43:22.972Z,18.30
2018-04-11T21:45:52.635Z,16.30
2018-04-11T21:48:21.965Z,16.53
2018-04-11T21:50:51.488Z,15.30
2018-04-11T21:53:21.009Z,16.30
2018-04-11T21:55:50.662Z,15.00
2018-04-11T21:58:20.211Z,16.20
2018-04-11T22:00:49.852Z,14.90
2018-04-11T22:03:19.771Z,15.10
2018-04-11T22:05:49.633Z,13.57
2018-04-11T22:08:19.188Z,15.47
2018-04-11T22:10:48.732Z,15.93
2018-04-11T22:13:18.636Z,17.52
2018-04-11T22:15:48.644Z,16.83
2018-04-11T22:18:18.144Z,16.73
2018-04-11T22:20:47.756Z,17.17
2018-04-11T22:23:17.780Z,16.50
2018-04-11T22:25:47.686Z,16.50
2018-04-11T22:28:17.528Z,17.62
2018-04-11T22:30:47.035Z,16.20
2018-04-11T22:33:16.920Z,16.60
2018-04-11T22:35:46.800Z,17.45
2018-04-11T22:38:16.350Z,16.93
2018-04-11T22:40:45.929Z,16.37
2018-04-11T22:43:16.025Z,19.87
2018-04-11T22:45:45.616Z,17.30
2018-04-11T22:48:15.841Z,16.58
2018-04-11T22:50:45.060Z,17.83
2018-04-11T22:53:14.651Z,18.92
2018-04-11T22:55:44.420Z,16.95
2018-04-11T22:58:14.249Z,19.42
2018-04-11T23:00:44.041Z,20.02
2018-04-11T23:03:13.898Z,17.65
2018-04-11T23:05:43.737Z,20.25
2018-04-11T23:08:13.561Z,19.10
2018-04-11T23:10:43.105Z,18.00
2018-04-11T23:13:12.637Z,18.20
2018-04-11T23:15:42.180Z,19.83
2018-04-11T23:18:11.771Z,18.73
2018-04-11T23:20:41.342Z,18.75
2018-04-11T23:23:11.632Z,16.62
2018-04-11T23:25:41.222Z,18.30
2018-04-11T23:28:11.059Z,16.83
2018-04-11T23:30:40.868Z,16.12
2018-04-11T23:33:10.717Z,16.75
2018-04-11T23:35:40.265Z,16.27
2018-04-11T23:38:09.858Z,17.42
2018-04-11T23:40:39.733Z,17.90
2018-04-11T23:43:09.583Z,16.92
2018-04-11T23:45:39.815Z,16.23
2018-04-11T23:48:10.006Z,15.73
2018-04-11T23:50:39.828Z,16.10
2018-04-11T23:53:09.683Z,18.10
2018-04-11T23:55:39.534Z,17.73
2018-04-11T23:58:09.410Z,17.15
